createdAt,value
2018-04-19T00:02:03.955Z,8.47
2018-04-19T00:04:31.617Z,7.57
2018-04-19T00:07:00.152Z,7.87
2018-04-19T00:09:28.126Z,8.20
2018-04-19T00:11:55.811Z,8.53
2018-04-19T00:14:24.219Z,8.40
2018-04-19T00:16:52.830Z,7.43
2018-04-19T00:19:20.493Z,8.57
2018-04-19T00:21:48.188Z,7.97
2018-04-19T00:24:16.753Z,8.20
2018-04-19T00:26:44.441Z,8.13
2018-04-19T00:29:12.954Z,8.67
2018-04-19T00:31:41.757Z,8.07
2018-04-19T00:34:09.721Z,8.00
2018-04-19T00:36:37.437Z,7.97
2018-04-19T00:39:06.841Z,8.73
2018-04-19T00:41:35.366Z,8.43
2018-04-19T00:44:03.034Z,8.93
2018-04-19T00:46:30.889Z,8.93
2018-04-19T00:48:58.582Z,8.47
2018-04-19T00:51:26.252Z,8.03
2018-04-19T00:53:53.961Z,8.67
2018-04-19T00:56:21.613Z,7.77
2018-04-19T00:58:50.037Z,7.97
2018-04-19T01:01:18.038Z,7.93
2018-04-19T01:03:46.467Z,8.13
2018-04-19T01:06:14.109Z,8.20
2018-04-19T01:08:42.715Z,8.17
2018-04-19T01:11:10.373Z,8.07
2018-04-19T01:13:38.025Z,8.17
2018-04-19T01:16:05.733Z,8.73
2018-04-19T01:18:33.389Z,8.83
2018-04-19T01:21:01.065Z,8.03
2018-04-19T01:23:28.989Z,7.80
2018-04-19T01:25:56.682Z,7.40
2018-04-19T01:28:24.350Z,8.20
2018-04-19T01:30:52.417Z,8.40
2018-04-19T01:33:20.101Z,7.77
2018-04-19T01:36:00.350Z,8.43
2018-04-19T01:38:28.004Z,7.77
2018-04-19T01:40:55.662Z,8.90
2018-04-19T01:43:23.377Z,10.40
2018-04-19T01:45:51.058Z,10.97
2018-04-19T01:48:18.765Z,10.03
2018-04-19T01:50:46.703Z,9.83
2018-04-19T01:53:14.416Z,10.03
2018-04-19T01:55:42.889Z,9.97
2018-04-19T01:58:11.519Z,7.80
2018-04-19T02:00:39.257Z,8.50
2018-04-19T02:03:06.909Z,9.00
2018-04-19T02:05:35.522Z,8.93
2018-04-19T02:08:03.185Z,8.83
2018-04-19T02:10:31.686Z,11.40
2018-04-19T02:12:59.398Z,10.10
2018-04-19T02:15:27.049Z,9.97
2018-04-19T02:17:55.461Z,10.20
2018-04-19T02:20:23.212Z,10.83
2018-04-19T02:22:50.897Z,10.70
2018-04-19T02:25:19.442Z,11.27
2018-04-19T02:27:48.093Z,12.57
2018-04-19T02:30:15.816Z,11.80
2018-04-19T02:32:43.542Z,10.93
2018-04-19T02:35:11.290Z,10.33
2018-04-19T02:37:38.947Z,10.57
2018-04-19T02:40:06.682Z,10.07
2018-04-19T02:42:34.471Z,9.50
2018-04-19T02:45:02.161Z,9.50
2018-04-19T02:47:31.319Z,9.50
2018-04-19T02:49:59.025Z,9.00
2018-04-19T02:52:27.461Z,9.97
2018-04-19T02:54:55.115Z,9.47
2018-04-19T02:57:22.863Z,10.80
2018-04-19T02:59:50.642Z,10.47
2018-04-19T03:02:18.324Z,10.50
2018-04-19T03:04:46.044Z,11.03
2018-04-19T03:07:13.705Z,10.70
2018-04-19T03:09:41.381Z,10.07
2018-04-19T03:12:09.081Z,9.97
2018-04-19T03:14:36.790Z,11.40
2018-04-19T03:17:04.502Z,10.30
2018-04-19T03:19:32.216Z,9.97
2018-04-19T03:21:59.867Z,10.70
2018-04-19T03:24:27.575Z,10.47
2018-04-19T03:26:55.304Z,10.40
2018-04-19T03:29:22.956Z,10.93
2018-04-19T03:31:51.366Z,10.90
2018-04-19T03:34:19.341Z,11.13
2018-04-19T03:36:46.989Z,10.80
2018-04-19T03:39:14.636Z,10.17
2018-04-19T03:41:42.352Z,9.83
2018-04-19T03:44:10.012Z,10.37
2018-04-19T03:46:37.717Z,10.33
2018-04-19T03:49:05.648Z,9.07
2018-04-19T03:51:33.368Z,11.33
2018-04-19T03:54:01.026Z,11.57
2018-04-19T03:56:28.820Z,10.33
2018-04-19T03:58:56.557Z,10.10
2018-04-19T04:01:24.261Z,9.70
2018-04-19T04:03:52.104Z,9.70
2018-04-19T04:06:19.789Z,9.70
2018-04-19T04:08:47.506Z,9.37
2018-04-19T04:11:15.594Z,9.53
2018-04-19T04:13:43.242Z,9.83
2018-04-19T04:16:37.647Z,12.80
2018-04-19T04:19:17.158Z,13.27
2018-04-19T04:21:56.685Z,13.53
2018-04-19T04:24:25.109Z,20.70
2018-04-19T04:26:52.761Z,18.30
2018-04-19T04:29:20.532Z,14.87
2018-04-19T04:31:48.199Z,13.43
2018-04-19T04:34:15.850Z,10.17
2018-04-19T04:36:43.553Z,12.43
2018-04-19T04:39:12.881Z,10.27
2018-04-19T04:41:41.347Z,9.20
2018-04-19T04:44:09.817Z,8.70
2018-04-19T04:46:37.518Z,9.07
2018-04-19T04:49:05.170Z,8.50
2018-04-19T04:51:33.682Z,8.23
2018-04-19T04:54:01.397Z,8.67
2018-04-19T04:56:29.045Z,8.80
2018-04-19T04:58:56.790Z,9.80
2018-04-19T05:01:24.455Z,8.93
2018-04-19T05:03:52.451Z,9.10
2018-04-19T05:06:20.301Z,9.50
2018-04-19T05:08:47.998Z,9.17
2018-04-19T05:11:15.710Z,8.97
2018-04-19T05:13:43.478Z,8.00
2018-04-19T05:16:11.134Z,8.63
2018-04-19T05:18:38.839Z,8.17
2018-04-19T05:21:07.373Z,7.97
2018-04-19T05:23:35.030Z,8.50
2018-04-19T05:26:02.735Z,8.30
2018-04-19T05:28:31.432Z,8.53
2018-04-19T05:30:59.154Z,7.70
2018-04-19T05:33:26.862Z,8.17
2018-04-19T05:35:55.746Z,8.50
2018-04-19T05:38:24.183Z,7.93
2018-04-19T05:40:51.889Z,8.73
2018-04-19T05:43:20.567Z,8.93
2018-04-19T05:45:49.042Z,8.47
2018-04-19T05:48:17.521Z,8.93
2018-04-19T05:50:45.998Z,8.60
2018-04-19T05:53:13.646Z,8.63
2018-04-19T05:55:41.342Z,9.43
2018-04-19T05:58:09.825Z,9.33
2018-04-19T06:00:38.322Z,8.63
2018-04-19T06:03:06.009Z,7.93
2018-04-19T06:05:33.777Z,8.70
2018-04-19T06:08:01.488Z,8.30
2018-04-19T06:10:29.910Z,9.07
2018-04-19T06:12:57.750Z,9.97
2018-04-19T06:15:25.409Z,10.70
2018-04-19T06:17:53.136Z,10.10
2018-04-19T06:20:20.849Z,9.37
2018-04-19T06:22:48.521Z,9.53
2018-04-19T06:25:16.409Z,9.10
2018-04-19T06:27:44.209Z,9.93
2018-04-19T06:30:12.626Z,10.00
2018-04-19T06:32:40.326Z,11.93
2018-04-19T06:35:08.034Z,8.70
2018-04-19T06:37:36.502Z,9.53
2018-04-19T06:40:04.952Z,10.23
2018-04-19T06:42:32.994Z,9.77
2018-04-19T06:45:00.641Z,10.00
2018-04-19T06:47:28.342Z,11.27
2018-04-19T06:49:56.049Z,10.80
2018-04-19T06:52:24.521Z,10.00
2018-04-19T06:54:52.941Z,9.93
2018-04-19T06:57:20.911Z,8.77
2018-04-19T06:59:48.609Z,9.87
2018-04-19T07:02:16.322Z,9.80
2018-04-19T07:04:44.026Z,11.00
2018-04-19T07:07:11.726Z,9.40
2018-04-19T07:09:40.146Z,8.50
2018-04-19T07:12:07.837Z,9.33
2018-04-19T07:14:35.536Z,8.93
2018-04-19T07:17:03.193Z,10.57
2018-04-19T07:19:31.833Z,10.10
2018-04-19T07:21:59.501Z,9.60
2018-04-19T07:24:28.097Z,8.50
2018-04-19T07:26:56.068Z,9.37
2018-04-19T07:29:23.725Z,9.30
2018-04-19T07:31:51.393Z,9.37
2018-04-19T07:34:19.173Z,8.27
2018-04-19T07:36:47.682Z,9.10
2018-04-19T07:39:15.355Z,7.37
2018-04-19T07:41:43.106Z,8.30
2018-04-19T07:44:10.826Z,7.53
2018-04-19T07:46:38.557Z,8.03
2018-04-19T07:49:06.407Z,6.90
2018-04-19T07:51:34.133Z,7.87
2018-04-19T07:54:02.578Z,7.77
2018-04-19T07:56:30.606Z,8.43
2018-04-19T07:58:58.257Z,8.47
2018-04-19T08:01:26.661Z,8.87
2018-04-19T08:03:54.393Z,8.70
2018-04-19T08:06:22.805Z,8.80
2018-04-19T08:08:50.503Z,8.13
2018-04-19T08:11:18.326Z,8.80
2018-04-19T08:13:45.957Z,9.43
2018-04-19T08:16:14.422Z,7.60
2018-04-19T08:18:42.905Z,8.23
2018-04-19T08:21:10.621Z,7.97
2018-04-19T08:23:38.342Z,7.93
2018-04-19T08:26:06.829Z,8.10
2018-04-19T08:28:35.302Z,7.93
2018-04-19T08:31:03.797Z,8.23
2018-04-19T08:33:31.662Z,8.10
2018-04-19T08:35:59.354Z,7.93
2018-04-19T08:38:27.026Z,8.83
2018-04-19T08:40:54.825Z,7.13
2018-04-19T08:43:23.244Z,7.57
2018-04-19T08:45:50.946Z,8.23
2018-04-19T08:48:19.781Z,8.20
2018-04-19T08:50:47.514Z,7.10
2018-04-19T08:53:15.178Z,6.80
2018-04-19T08:55:43.903Z,6.47
2018-04-19T08:58:11.616Z,7.70
2018-04-19T09:00:40.098Z,6.93
2018-04-19T09:03:08.623Z,7.33
2018-04-19T09:05:36.346Z,7.20
2018-04-19T09:08:04.822Z,7.07
2018-04-19T09:10:33.309Z,7.30
2018-04-19T09:13:01.722Z,7.73
2018-04-19T09:15:29.365Z,7.80
2018-04-19T09:17:57.341Z,7.90
2018-04-19T09:20:25.043Z,6.73
2018-04-19T09:22:52.754Z,8.33
2018-04-19T09:25:20.609Z,8.10
2018-04-19T09:27:49.086Z,7.50
2018-04-19T09:30:17.542Z,7.07
2018-04-19T09:32:45.329Z,7.57
2018-04-19T09:35:13.774Z,7.60
2018-04-19T09:37:41.488Z,7.47
2018-04-19T09:40:09.483Z,7.00
2018-04-19T09:42:37.222Z,7.53
2018-04-19T09:45:04.891Z,6.80
2018-04-19T09:47:32.681Z,7.50
2018-04-19T09:50:00.360Z,9.60
2018-04-19T09:52:27.998Z,7.77
2018-04-19T09:54:56.713Z,13.00
2018-04-19T09:57:24.414Z,7.90
2018-04-19T09:59:52.845Z,7.03
2018-04-19T10:02:26.257Z,8.07
2018-04-19T10:04:53.988Z,7.63
2018-04-19T10:07:21.646Z,7.90
2018-04-19T10:09:49.658Z,8.63
2018-04-19T10:12:17.379Z,6.97
2018-04-19T10:14:45.078Z,6.83
2018-04-19T10:17:13.059Z,13.17
2018-04-19T10:19:40.779Z,6.87
2018-04-19T10:22:08.499Z,6.40
2018-04-19T10:24:37.244Z,7.60
2018-04-19T10:27:04.913Z,11.77
2018-04-19T10:29:32.560Z,6.27
2018-04-19T10:32:00.602Z,5.97
2018-04-19T10:34:28.277Z,7.13
2018-04-19T10:36:55.931Z,6.00
2018-04-19T10:39:23.822Z,5.37
2018-04-19T10:41:52.244Z,6.40
2018-04-19T10:44:20.718Z,7.77
2018-04-19T10:46:48.590Z,6.97
2018-04-19T10:49:16.233Z,7.83
2018-04-19T10:51:44.650Z,7.00
2018-04-19T10:54:12.532Z,6.90
2018-04-19T10:56:40.214Z,6.43
2018-04-19T10:59:07.918Z,6.50
2018-04-19T11:01:35.691Z,6.30
2018-04-19T11:04:03.402Z,6.73
2018-04-19T11:06:31.123Z,7.10
2018-04-19T11:08:58.838Z,6.03
2018-04-19T11:11:26.547Z,6.20
2018-04-19T11:13:54.210Z,9.70
2018-04-19T11:16:21.966Z,6.43
2018-04-19T11:18:49.675Z,6.87
2018-04-19T11:21:17.342Z,12.40
2018-04-19T11:23:45.179Z,6.67
2018-04-19T11:26:12.830Z,6.20
2018-04-19T11:28:40.534Z,5.97
2018-04-19T11:31:08.246Z,6.70
2018-04-19T11:33:35.950Z,6.43
2018-04-19T11:36:03.650Z,6.33
2018-04-19T11:38:31.414Z,6.30
2018-04-19T11:40:59.073Z,6.20
2018-04-19T11:43:27.490Z,6.20
2018-04-19T11:45:55.457Z,5.87
2018-04-19T11:48:23.099Z,6.43
2018-04-19T11:50:50.746Z,8.00
2018-04-19T11:53:19.365Z,5.93
2018-04-19T11:55:47.050Z,5.57
2018-04-19T11:58:14.750Z,5.70
2018-04-19T12:00:43.220Z,6.40
2018-04-19T12:03:10.927Z,4.90
2018-04-19T12:05:38.582Z,5.90
2018-04-19T12:08:06.294Z,6.17
2018-04-19T12:10:33.951Z,5.60
2018-04-19T12:13:01.597Z,5.57
2018-04-19T12:15:29.363Z,9.70
2018-04-19T12:17:57.023Z,5.93
2018-04-19T12:20:24.706Z,5.67
2018-04-19T12:22:52.430Z,5.67
2018-04-19T12:25:20.137Z,5.43
2018-04-19T12:27:48.565Z,6.03
2018-04-19T12:30:16.273Z,5.97
2018-04-19T12:32:43.949Z,5.90
2018-04-19T12:35:12.454Z,5.10
2018-04-19T12:37:40.208Z,6.13
2018-04-19T12:40:08.680Z,7.67
2018-04-19T12:42:37.159Z,7.93
2018-04-19T12:45:05.683Z,5.67
2018-04-19T12:47:33.402Z,6.33
2018-04-19T12:50:01.879Z,7.10
2018-04-19T12:52:30.670Z,6.40
2018-04-19T12:54:59.159Z,6.10
2018-04-19T12:57:27.578Z,6.90
2018-04-19T12:59:55.327Z,5.50
2018-04-19T13:02:22.995Z,7.27
2018-04-19T13:04:50.663Z,6.00
2018-04-19T13:07:18.370Z,6.33
2018-04-19T13:09:46.796Z,6.60
2018-04-19T13:12:14.442Z,7.03
2018-04-19T13:14:42.154Z,6.17
2018-04-19T13:17:09.797Z,6.10
2018-04-19T13:19:38.206Z,5.73
2018-04-19T13:22:07.414Z,6.33
2018-04-19T13:24:35.837Z,6.47
2018-04-19T13:27:03.548Z,7.17
2018-04-19T13:29:32.206Z,5.80
2018-04-19T13:31:59.859Z,6.57
2018-04-19T13:34:27.513Z,6.93
2018-04-19T13:36:55.481Z,5.67
2018-04-19T13:39:23.173Z,5.67
2018-04-19T13:41:50.835Z,13.37
2018-04-19T13:44:18.547Z,5.80
2018-04-19T13:46:46.201Z,5.83
2018-04-19T13:49:13.843Z,6.10
2018-04-19T13:51:42.499Z,5.93
2018-04-19T13:54:10.943Z,5.27
2018-04-19T13:56:38.678Z,7.13
2018-04-19T13:59:06.478Z,6.40
2018-04-19T14:01:34.214Z,6.40
2018-04-19T14:04:01.924Z,5.90
2018-04-19T14:06:29.627Z,6.83
2018-04-19T14:08:58.082Z,6.53
2018-04-19T14:11:25.774Z,5.37
2018-04-19T14:13:53.486Z,5.33
2018-04-19T14:16:21.133Z,5.07
2018-04-19T14:18:48.785Z,12.53
2018-04-19T14:21:16.582Z,6.00
2018-04-19T14:23:44.233Z,5.57
2018-04-19T14:26:11.932Z,5.60
2018-04-19T14:28:40.394Z,6.30
2018-04-19T14:31:08.046Z,5.30
2018-04-19T14:33:35.688Z,5.70
2018-04-19T14:36:03.382Z,6.00
2018-04-19T14:38:31.022Z,5.90
2018-04-19T14:40:58.667Z,5.87
2018-04-19T14:43:26.526Z,6.40
2018-04-19T14:45:54.219Z,5.80
2018-04-19T14:48:21.922Z,5.73
2018-04-19T14:50:49.670Z,6.33
2018-04-19T14:53:18.086Z,8.23
2018-04-19T14:55:45.726Z,6.23
2018-04-19T14:58:14.333Z,5.70
2018-04-19T15:00:41.980Z,6.17
2018-04-19T15:03:09.617Z,7.33
2018-04-19T15:05:37.626Z,6.73
2018-04-19T15:08:05.277Z,6.57
2018-04-19T15:10:32.972Z,6.43
2018-04-19T15:13:00.822Z,8.60
2018-04-19T15:15:28.485Z,6.80
2018-04-19T15:17:56.126Z,6.63
2018-04-19T15:20:24.725Z,8.03
2018-04-19T15:22:52.415Z,6.60
2018-04-19T15:25:20.114Z,6.53
2018-04-19T15:27:48.734Z,6.40
2018-04-19T15:30:16.430Z,6.90
2018-04-19T15:32:44.909Z,6.83
2018-04-19T15:35:12.753Z,7.37
2018-04-19T15:37:40.414Z,8.23
2018-04-19T15:40:08.066Z,6.97
2018-04-19T15:42:35.766Z,6.17
2018-04-19T15:45:03.490Z,6.57
2018-04-19T15:47:31.146Z,8.53
2018-04-19T15:49:58.956Z,7.53
2018-04-19T15:52:26.629Z,6.87
2018-04-19T15:54:54.330Z,6.70
2018-04-19T15:57:22.087Z,7.77
2018-04-19T15:59:49.752Z,8.30
2018-04-19T16:02:17.399Z,8.17
2018-04-19T16:04:45.089Z,7.13
2018-04-19T16:07:12.741Z,6.40
2018-04-19T16:09:41.157Z,8.20
2018-04-19T16:12:08.888Z,7.80
2018-04-19T16:14:37.296Z,7.83
2018-04-19T16:17:05.756Z,8.53
2018-04-19T16:19:33.446Z,43.87
2018-04-19T16:22:01.096Z,12.13
2018-04-19T16:24:28.741Z,7.30
2018-04-19T16:26:57.637Z,6.93
2018-04-19T16:29:26.154Z,7.23
2018-04-19T16:31:53.851Z,7.00
2018-04-19T16:34:21.800Z,9.63
2018-04-19T16:36:49.449Z,9.23
2018-04-19T16:39:17.143Z,9.40
2018-04-19T16:41:44.861Z,10.63
2018-04-19T16:44:12.517Z,13.87
2018-04-19T16:46:40.309Z,10.80
2018-04-19T16:49:08.269Z,15.57
2018-04-19T16:51:36.352Z,13.70
2018-04-19T16:54:04.114Z,14.10
2018-04-19T16:56:32.069Z,15.57
2018-04-19T16:59:00.610Z,13.10
2018-04-19T17:01:28.261Z,14.60
2018-04-19T17:03:56.016Z,15.97
2018-04-19T17:06:23.695Z,14.50
2018-04-19T17:08:51.375Z,14.67
2018-04-19T17:11:19.359Z,13.17
2018-04-19T17:13:47.791Z,19.17
2018-04-19T17:16:15.464Z,21.47
2018-04-19T17:18:43.221Z,14.20
2018-04-19T17:21:10.890Z,19.63
2018-04-19T17:23:38.590Z,19.40
2018-04-19T17:26:07.078Z,16.73
2018-04-19T17:28:35.519Z,18.80
2018-04-19T17:31:03.279Z,10.53
2018-04-19T17:33:31.231Z,11.67
2018-04-19T17:35:58.890Z,14.20
2018-04-19T17:38:26.611Z,15.93
2018-04-19T17:40:55.963Z,10.70
2018-04-19T17:43:23.659Z,9.60
2018-04-19T17:45:51.490Z,9.10
2018-04-19T17:48:19.373Z,8.40
2018-04-19T17:50:47.025Z,8.17
2018-04-19T17:53:14.700Z,8.90
2018-04-19T17:55:42.489Z,7.67
2018-04-19T17:58:10.922Z,9.83
2018-04-19T18:00:38.617Z,9.87
2018-04-19T18:03:07.268Z,11.83
2018-04-19T18:05:34.913Z,8.67
2018-04-19T18:08:02.617Z,9.60
2018-04-19T18:10:30.494Z,10.50
2018-04-19T18:12:58.163Z,11.20
2018-04-19T18:15:25.835Z,10.53
2018-04-19T18:17:54.474Z,11.30
2018-04-19T18:20:22.145Z,10.53
2018-04-19T18:22:49.855Z,11.10
2018-04-19T18:25:17.745Z,11.30
2018-04-19T18:27:45.401Z,13.93
2018-04-19T18:30:13.049Z,13.43
2018-04-19T18:32:40.756Z,11.80
2018-04-19T18:35:08.429Z,12.70
2018-04-19T18:37:36.858Z,12.57
2018-04-19T18:40:05.882Z,12.20
2018-04-19T18:42:33.525Z,12.97
2018-04-19T18:45:01.197Z,13.93
2018-04-19T18:47:31.311Z,12.33
2018-04-19T18:50:01.926Z,13.87
2018-04-19T18:52:30.712Z,13.23
2018-04-19T18:55:01.788Z,12.73
2018-04-19T18:57:29.501Z,11.87
2018-04-19T18:59:57.214Z,11.43
2018-04-19T19:02:24.876Z,11.13
2018-04-19T19:04:52.594Z,11.50
2018-04-19T19:07:21.042Z,11.00
2018-04-19T19:09:48.750Z,10.83
2018-04-19T19:12:16.399Z,10.87
2018-04-19T19:14:44.869Z,10.80
2018-04-19T19:17:24.273Z,10.17
2018-04-19T19:20:05.003Z,13.20
2018-04-19T19:22:32.649Z,12.50
2018-04-19T19:25:00.350Z,12.33
2018-04-19T19:27:28.973Z,12.07
2018-04-19T19:29:56.689Z,12.20
2018-04-19T19:32:25.056Z,12.13
2018-04-19T19:34:53.936Z,11.87
2018-04-19T19:37:21.812Z,11.50
2018-04-19T19:39:49.745Z,13.40
2018-04-19T19:42:18.775Z,11.77
2018-04-19T19:44:47.882Z,12.07
2018-04-19T19:47:16.317Z,12.80
2018-04-19T19:49:45.211Z,11.90
2018-04-19T19:52:13.004Z,12.87
2018-04-19T19:54:40.977Z,13.10
2018-04-19T19:57:08.766Z,13.37
2018-04-19T19:59:37.495Z,13.23
2018-04-19T20:02:05.289Z,15.83
2018-04-19T20:04:33.019Z,18.00
2018-04-19T20:07:00.670Z,15.70
2018-04-19T20:09:29.096Z,19.60
2018-04-19T20:11:56.813Z,116.40
2018-04-19T20:14:25.282Z,114.90
2018-04-19T20:16:53.762Z,69.50
2018-04-19T20:19:24.767Z,76.27
2018-04-19T20:21:52.429Z,56.83
2018-04-19T20:24:20.293Z,50.43
2018-04-19T20:26:48.360Z,17.87
2018-04-19T20:29:16.021Z,14.53
2018-04-19T20:31:43.888Z,12.00
2018-04-19T20:34:11.589Z,12.60
2018-04-19T20:36:40.227Z,12.07
2018-04-19T20:39:08.102Z,12.17
2018-04-19T20:41:35.965Z,14.87
2018-04-19T20:44:03.827Z,13.17
2018-04-19T20:46:32.767Z,13.03
2018-04-19T20:49:01.981Z,12.80
2018-04-19T20:51:30.398Z,16.20
2018-04-19T20:53:58.033Z,15.53
2018-04-19T20:56:25.928Z,13.03
2018-04-19T20:58:53.576Z,13.40
2018-04-19T21:01:21.355Z,12.97
2018-04-19T21:03:49.085Z,12.70
2018-04-19T21:06:16.741Z,12.10
2018-04-19T21:08:44.455Z,12.93
2018-04-19T21:11:12.303Z,12.67
2018-04-19T21:13:39.952Z,13.53
2018-04-19T21:16:07.617Z,11.80
2018-04-19T21:18:35.705Z,12.77
2018-04-19T21:21:03.358Z,11.60
2018-04-19T21:23:31.239Z,11.33
2018-04-19T21:25:58.941Z,13.30
2018-04-19T21:28:27.400Z,13.03
2018-04-19T21:30:55.239Z,13.87
2018-04-19T21:33:23.310Z,13.23
2018-04-19T21:35:51.196Z,12.50
2018-04-19T21:38:18.936Z,11.43
2018-04-19T21:40:46.644Z,12.23
2018-04-19T21:43:16.516Z,13.13
2018-04-19T21:45:44.180Z,12.70
2018-04-19T21:48:12.089Z,12.50
2018-04-19T21:50:40.529Z,11.70
2018-04-19T21:53:08.169Z,9.47
2018-04-19T21:55:36.341Z,9.60
2018-04-19T21:58:04.121Z,8.90
2018-04-19T22:00:31.994Z,8.77
2018-04-19T22:03:00.262Z,9.40
2018-04-19T22:05:28.762Z,8.97
2018-04-19T22:07:56.614Z,9.83
2018-04-19T22:10:24.320Z,9.63
2018-04-19T22:12:52.755Z,10.27
2018-04-19T22:15:20.433Z,9.80
2018-04-19T22:17:48.361Z,9.77
2018-04-19T22:20:16.147Z,9.80
2018-04-19T22:22:44.020Z,30.87
2018-04-19T22:25:11.874Z,43.10
2018-04-19T22:27:39.526Z,11.20
2018-04-19T22:30:07.232Z,10.17
2018-04-19T22:32:35.211Z,10.57
2018-04-19T22:35:02.844Z,62.70
2018-04-19T22:37:30.494Z,96.17
2018-04-19T22:39:58.181Z,27.50
2018-04-19T22:42:26.025Z,12.97
2018-04-19T22:44:53.850Z,11.57
2018-04-19T22:47:22.312Z,10.40
2018-04-19T22:49:50.725Z,9.47
2018-04-19T22:52:18.373Z,10.03
2018-04-19T22:54:46.972Z,9.87
2018-04-19T22:57:14.612Z,8.27
2018-04-19T22:59:43.245Z,8.70
2018-04-19T23:02:10.952Z,8.43
2018-04-19T23:04:39.373Z,8.47
2018-04-19T23:07:07.013Z,8.30
2018-04-19T23:09:34.709Z,7.57
2018-04-19T23:12:02.573Z,7.80
2018-04-19T23:14:30.443Z,7.97
2018-04-19T23:16:58.160Z,7.90
2018-04-19T23:19:27.488Z,8.10
2018-04-19T23:21:55.272Z,7.60
2018-04-19T23:24:22.992Z,7.30
2018-04-19T23:26:51.612Z,7.47
2018-04-19T23:29:19.268Z,8.03
2018-04-19T23:31:47.495Z,7.23
2018-04-19T23:34:15.905Z,7.90
2018-04-19T23:36:43.543Z,6.60
2018-04-19T23:39:11.997Z,7.23
2018-04-19T23:41:39.841Z,7.40
2018-04-19T23:44:07.500Z,7.20
2018-04-19T23:46:35.193Z,7.57
2018-04-19T23:49:03.025Z,7.90
2018-04-19T23:51:30.898Z,7.77
2018-04-19T23:53:58.737Z,7.87
2018-04-19T23:56:26.529Z,6.10
2018-04-19T23:58:54.204Z,7.43
